sensor_id;sensor_type;location;lat;lon;timestamp;temperature;humidity
17687;DHT22;8962;52.538;13.266;2023-07-24T00:01:14;19.70;1.00
17687;DHT22;8962;52.538;13.266;2023-07-24T00:03:42;19.70;1.00
17687;DHT22;8962;52.538;13.266;2023-07-24T00:06:10;19.70;1.00
17687;DHT22;8962;52.538;13.266;2023-07-24T00:08:37;19.70;1.00
17687;DHT22;8962;52.538;13.266;2023-07-24T00:11:07;19.60;1.00
17687;DHT22;8962;52.538;13.266;2023-07-24T00:13:34;19.60;1.00
17687;DHT22;8962;52.538;13.266;2023-07-24T00:16:06;19.60;1.00
17687;DHT22;8962;52.538;13.266;2023-07-24T00:18:33;19.60;1.00
17687;DHT22;8962;52.538;13.266;2023-07-24T00:21:00;19.70;1.00
17687;DHT22;8962;52.538;13.266;2023-07-24T00:23:27;19.70;1.00
17687;DHT22;8962;52.538;13.266;2023-07-24T00:25:55;19.70;1.00
17687;DHT22;8962;52.538;13.266;2023-07-24T00:28:22;19.80;1.00
17687;DHT22;8962;52.538;13.266;2023-07-24T00:30:49;19.70;1.00
17687;DHT22;8962;52.538;13.266;2023-07-24T00:33:19;19.70;1.00
17687;DHT22;8962;52.538;13.266;2023-07-24T00:35:46;19.70;1.00
17687;DHT22;8962;52.538;13.266;2023-07-24T00:38:14;19.60;1.00
17687;DHT22;8962;52.538;13.266;2023-07-24T00:40:41;19.60;1.00
17687;DHT22;8962;52.538;13.266;2023-07-24T00:43:08;19.60;1.00
17687;DHT22;8962;52.538;13.266;2023-07-24T00:45:36;19.60;1.00
17687;DHT22;8962;52.538;13.266;2023-07-24T00:48:03;19.60;1.00
17687;DHT22;8962;52.538;13.266;2023-07-24T00:50:31;19.60;1.00
17687;DHT22;8962;52.538;13.266;2023-07-24T00:52:59;19.50;1.00
17687;DHT22;8962;52.538;13.266;2023-07-24T00:55:26;19.50;1.00
17687;DHT22;8962;52.538;13.266;2023-07-24T00:57:53;19.50;1.00
17687;DHT22;8962;52.538;13.266;2023-07-24T01:00:21;19.50;1.00
17687;DHT22;8962;52.538;13.266;2023-07-24T01:02:48;19.40;1.00
17687;DHT22;8962;52.538;13.266;2023-07-24T01:05:16;19.40;1.00
17687;DHT22;8962;52.538;13.266;2023-07-24T01:07:45;19.40;1.00
17687;DHT22;8962;52.538;13.266;2023-07-24T01:10:12;19.30;1.00
17687;DHT22;8962;52.538;13.266;2023-07-24T01:12:45;19.30;1.00
17687;DHT22;8962;52.538;13.266;2023-07-24T01:15:22;19.30;1.00
17687;DHT22;8962;52.538;13.266;2023-07-24T01:17:57;19.30;1.00
17687;DHT22;8962;52.538;13.266;2023-07-24T01:20:26;19.20;1.00
17687;DHT22;8962;52.538;13.266;2023-07-24T01:23:14;19.30;1.00
17687;DHT22;8962;52.538;13.266;2023-07-24T01:25:57;19.30;1.00
17687;DHT22;8962;52.538;13.266;2023-07-24T01:28:24;19.30;1.00
17687;DHT22;8962;52.538;13.266;2023-07-24T01:30:52;19.30;1.00
17687;DHT22;8962;52.538;13.266;2023-07-24T01:33:21;19.40;1.00
17687;DHT22;8962;52.538;13.266;2023-07-24T01:35:49;19.40;1.00
17687;DHT22;8962;52.538;13.266;2023-07-24T01:38:19;19.40;1.00
17687;DHT22;8962;52.538;13.266;2023-07-24T01:40:46;19.40;1.00
17687;DHT22;8962;52.538;13.266;2023-07-24T01:43:15;19.50;1.00
17687;DHT22;8962;52.538;13.266;2023-07-24T01:45:43;19.40;1.00
17687;DHT22;8962;52.538;13.266;2023-07-24T01:48:10;19.50;1.00
17687;DHT22;8962;52.538;13.266;2023-07-24T01:50:37;19.60;1.00
17687;DHT22;8962;52.538;13.266;2023-07-24T01:53:04;19.60;1.00
17687;DHT22;8962;52.538;13.266;2023-07-24T01:55:31;19.70;1.00
17687;DHT22;8962;52.538;13.266;2023-07-24T01:57:59;19.70;1.00
17687;DHT22;8962;52.538;13.266;2023-07-24T02:00:29;19.70;1.00
17687;DHT22;8962;52.538;13.266;2023-07-24T02:02:57;19.70;1.00
17687;DHT22;8962;52.538;13.266;2023-07-24T02:05:25;19.70;1.00
17687;DHT22;8962;52.538;13.266;2023-07-24T02:07:53;19.70;1.00
17687;DHT22;8962;52.538;13.266;2023-07-24T02:10:20;19.70;1.00
17687;DHT22;8962;52.538;13.266;2023-07-24T02:12:48;19.80;1.00
17687;DHT22;8962;52.538;13.266;2023-07-24T02:15:15;19.70;1.00
17687;DHT22;8962;52.538;13.266;2023-07-24T02:17:46;19.70;1.00
17687;DHT22;8962;52.538;13.266;2023-07-24T02:20:13;19.80;1.00
17687;DHT22;8962;52.538;13.266;2023-07-24T02:22:40;19.80;1.00
17687;DHT22;8962;52.538;13.266;2023-07-24T02:25:08;19.80;1.00
17687;DHT22;8962;52.538;13.266;2023-07-24T02:27:36;19.80;1.00
17687;DHT22;8962;52.538;13.266;2023-07-24T02:30:04;19.80;1.00
17687;DHT22;8962;52.538;13.266;2023-07-24T02:32:32;19.70;1.00
17687;DHT22;8962;52.538;13.266;2023-07-24T02:35:01;19.70;1.00
17687;DHT22;8962;52.538;13.266;2023-07-24T02:37:29;19.70;1.00
17687;DHT22;8962;52.538;13.266;2023-07-24T02:39:56;19.70;1.00
17687;DHT22;8962;52.538;13.266;2023-07-24T02:42:24;19.70;1.00
17687;DHT22;8962;52.538;13.266;2023-07-24T02:44:51;19.80;1.00
17687;DHT22;8962;52.538;13.266;2023-07-24T02:47:19;19.70;1.00
17687;DHT22;8962;52.538;13.266;2023-07-24T02:49:46;19.70;1.00
17687;DHT22;8962;52.538;13.266;2023-07-24T02:52:15;19.70;1.00
17687;DHT22;8962;52.538;13.266;2023-07-24T02:54:42;19.70;1.00
17687;DHT22;8962;52.538;13.266;2023-07-24T02:57:11;19.70;1.00
17687;DHT22;8962;52.538;13.266;2023-07-24T02:59:39;19.70;1.00
17687;DHT22;8962;52.538;13.266;2023-07-24T03:02:07;19.70;1.00
17687;DHT22;8962;52.538;13.266;2023-07-24T03:04:36;19.80;1.00
17687;DHT22;8962;52.538;13.266;2023-07-24T03:07:04;19.80;1.00
17687;DHT22;8962;52.538;13.266;2023-07-24T03:09:34;19.80;1.00
17687;DHT22;8962;52.538;13.266;2023-07-24T03:12:01;19.80;1.00
17687;DHT22;8962;52.538;13.266;2023-07-24T03:14:29;19.80;1.00
17687;DHT22;8962;52.538;13.266;2023-07-24T03:16:56;19.80;1.00
17687;DHT22;8962;52.538;13.266;2023-07-24T03:19:23;19.80;1.00
17687;DHT22;8962;52.538;13.266;2023-07-24T03:21:53;19.80;1.00
17687;DHT22;8962;52.538;13.266;2023-07-24T03:24:22;19.70;1.00
17687;DHT22;8962;52.538;13.266;2023-07-24T03:26:51;19.70;1.00
17687;DHT22;8962;52.538;13.266;2023-07-24T03:29:17;19.80;1.00
17687;DHT22;8962;52.538;13.266;2023-07-24T03:31:45;19.80;1.00
17687;DHT22;8962;52.538;13.266;2023-07-24T03:34:12;19.90;1.00
17687;DHT22;8962;52.538;13.266;2023-07-24T03:36:41;19.90;1.00
17687;DHT22;8962;52.538;13.266;2023-07-24T03:39:10;19.90;1.00
17687;DHT22;8962;52.538;13.266;2023-07-24T03:41:38;19.90;19.40
17687;DHT22;8962;52.538;13.266;2023-07-24T03:44:07;19.70;55.90
17687;DHT22;8962;52.538;13.266;2023-07-24T03:46:41;19.50;70.40
17687;DHT22;8962;52.538;13.266;2023-07-24T03:49:08;19.40;80.60
17687;DHT22;8962;52.538;13.266;2023-07-24T03:51:35;19.40;86.60
17687;DHT22;8962;52.538;13.266;2023-07-24T03:54:03;19.30;88.70
17687;DHT22;8962;52.538;13.266;2023-07-24T03:56:30;19.40;91.10
17687;DHT22;8962;52.538;13.266;2023-07-24T03:58:57;19.40;91.50
17687;DHT22;8962;52.538;13.266;2023-07-24T04:01:26;19.40;91.70
17687;DHT22;8962;52.538;13.266;2023-07-24T04:03:53;19.40;91.60
17687;DHT22;8962;52.538;13.266;2023-07-24T04:06:20;19.40;89.80
17687;DHT22;8962;52.538;13.266;2023-07-24T04:08:47;19.50;90.70
17687;DHT22;8962;52.538;13.266;2023-07-24T04:11:15;19.40;91.70
17687;DHT22;8962;52.538;13.266;2023-07-24T04:13:43;19.40;92.00
17687;DHT22;8962;52.538;13.266;2023-07-24T04:16:10;19.40;92.40
17687;DHT22;8962;52.538;13.266;2023-07-24T04:18:39;19.40;92.80
17687;DHT22;8962;52.538;13.266;2023-07-24T04:21:06;19.50;92.70
17687;DHT22;8962;52.538;13.266;2023-07-24T04:23:34;19.50;93.10
17687;DHT22;8962;52.538;13.266;2023-07-24T04:26:01;19.50;92.50
17687;DHT22;8962;52.538;13.266;2023-07-24T04:28:28;19.60;91.70
17687;DHT22;8962;52.538;13.266;2023-07-24T04:30:59;19.70;86.50
17687;DHT22;8962;52.538;13.266;2023-07-24T04:33:25;19.70;88.30
17687;DHT22;8962;52.538;13.266;2023-07-24T04:35:54;19.80;84.40
17687;DHT22;8962;52.538;13.266;2023-07-24T04:38:22;19.90;81.10
17687;DHT22;8962;52.538;13.266;2023-07-24T04:40:49;20.00;78.30
17687;DHT22;8962;52.538;13.266;2023-07-24T04:43:16;19.90;74.40
17687;DHT22;8962;52.538;13.266;2023-07-24T04:45:43;20.00;71.80
17687;DHT22;8962;52.538;13.266;2023-07-24T04:48:10;20.00;62.40
17687;DHT22;8962;52.538;13.266;2023-07-24T04:50:38;20.10;60.30
17687;DHT22;8962;52.538;13.266;2023-07-24T04:53:06;20.20;56.50
17687;DHT22;8962;52.538;13.266;2023-07-24T04:55:33;20.10;54.80
17687;DHT22;8962;52.538;13.266;2023-07-24T04:58:01;20.20;51.30
17687;DHT22;8962;52.538;13.266;2023-07-24T05:00:28;20.30;46.70
17687;DHT22;8962;52.538;13.266;2023-07-24T05:02:55;20.40;44.60
17687;DHT22;8962;52.538;13.266;2023-07-24T05:05:22;20.30;44.20
17687;DHT22;8962;52.538;13.266;2023-07-24T05:07:49;20.40;40.00
17687;DHT22;8962;52.538;13.266;2023-07-24T05:10:18;20.40;39.50
17687;DHT22;8962;52.538;13.266;2023-07-24T05:12:45;20.40;44.60
17687;DHT22;8962;52.538;13.266;2023-07-24T05:15:12;20.50;40.70
17687;DHT22;8962;52.538;13.266;2023-07-24T05:17:42;20.60;36.70
17687;DHT22;8962;52.538;13.266;2023-07-24T05:20:10;20.70;33.90
17687;DHT22;8962;52.538;13.266;2023-07-24T05:22:38;20.90;25.40
17687;DHT22;8962;52.538;13.266;2023-07-24T05:25:06;21.00;17.50
17687;DHT22;8962;52.538;13.266;2023-07-24T05:27:36;21.10;24.10
17687;DHT22;8962;52.538;13.266;2023-07-24T05:30:05;21.30;9.60
17687;DHT22;8962;52.538;13.266;2023-07-24T05:32:32;21.30;10.10
17687;DHT22;8962;52.538;13.266;2023-07-24T05:34:59;21.40;5.60
17687;DHT22;8962;52.538;13.266;2023-07-24T05:37:27;21.40;1.00
17687;DHT22;8962;52.538;13.266;2023-07-24T05:39:54;21.50;1.00
17687;DHT22;8962;52.538;13.266;2023-07-24T05:42:21;21.50;1.00
17687;DHT22;8962;52.538;13.266;2023-07-24T05:44:50;21.60;1.00
17687;DHT22;8962;52.538;13.266;2023-07-24T05:47:17;21.60;1.00
17687;DHT22;8962;52.538;13.266;2023-07-24T05:49:44;21.60;1.00
17687;DHT22;8962;52.538;13.266;2023-07-24T05:52:12;21.60;1.00
17687;DHT22;8962;52.538;13.266;2023-07-24T05:54:39;21.60;1.00
17687;DHT22;8962;52.538;13.266;2023-07-24T05:57:06;21.60;1.00
17687;DHT22;8962;52.538;13.266;2023-07-24T05:59:35;21.60;1.00
17687;DHT22;8962;52.538;13.266;2023-07-24T06:02:05;21.70;1.00
17687;DHT22;8962;52.538;13.266;2023-07-24T06:04:36;21.60;1.00
17687;DHT22;8962;52.538;13.266;2023-07-24T06:07:03;21.60;1.00
17687;DHT22;8962;52.538;13.266;2023-07-24T06:09:30;21.60;1.00
17687;DHT22;8962;52.538;13.266;2023-07-24T06:11:58;21.50;1.00
17687;DHT22;8962;52.538;13.266;2023-07-24T06:14:26;21.40;1.00
17687;DHT22;8962;52.538;13.266;2023-07-24T06:16:53;21.50;1.00
17687;DHT22;8962;52.538;13.266;2023-07-24T06:19:22;21.50;1.00
17687;DHT22;8962;52.538;13.266;2023-07-24T06:21:49;21.60;1.00
17687;DHT22;8962;52.538;13.266;2023-07-24T06:24:17;21.60;1.00
17687;DHT22;8962;52.538;13.266;2023-07-24T06:26:47;21.70;1.00
17687;DHT22;8962;52.538;13.266;2023-07-24T06:29:14;21.70;1.00
17687;DHT22;8962;52.538;13.266;2023-07-24T06:31:43;21.70;1.00
17687;DHT22;8962;52.538;13.266;2023-07-24T06:34:10;21.80;1.00
17687;DHT22;8962;52.538;13.266;2023-07-24T06:36:39;21.80;1.00
17687;DHT22;8962;52.538;13.266;2023-07-24T06:39:07;22.00;1.00
17687;DHT22;8962;52.538;13.266;2023-07-24T06:41:36;22.10;1.00
17687;DHT22;8962;52.538;13.266;2023-07-24T06:44:06;22.20;1.00
17687;DHT22;8962;52.538;13.266;2023-07-24T06:46:34;22.40;1.00
17687;DHT22;8962;52.538;13.266;2023-07-24T06:49:01;22.50;1.00
17687;DHT22;8962;52.538;13.266;2023-07-24T06:51:28;22.70;1.00
17687;DHT22;8962;52.538;13.266;2023-07-24T06:54:00;22.80;1.00
17687;DHT22;8962;52.538;13.266;2023-07-24T06:56:31;22.60;1.00
17687;DHT22;8962;52.538;13.266;2023-07-24T06:58:58;22.70;1.00
17687;DHT22;8962;52.538;13.266;2023-07-24T07:01:26;22.70;1.00
17687;DHT22;8962;52.538;13.266;2023-07-24T07:03:54;22.70;1.00
17687;DHT22;8962;52.538;13.266;2023-07-24T07:06:23;22.80;1.00
17687;DHT22;8962;52.538;13.266;2023-07-24T07:08:50;22.80;1.00
17687;DHT22;8962;52.538;13.266;2023-07-24T07:11:20;23.00;1.00
17687;DHT22;8962;52.538;13.266;2023-07-24T07:13:58;23.10;1.00
17687;DHT22;8962;52.538;13.266;2023-07-24T07:16:27;23.20;1.00
17687;DHT22;8962;52.538;13.266;2023-07-24T07:18:56;23.40;99.90
17687;DHT22;8962;52.538;13.266;2023-07-24T07:21:25;23.40;99.90
17687;DHT22;8962;52.538;13.266;2023-07-24T07:23:53;23.60;99.90
17687;DHT22;8962;52.538;13.266;2023-07-24T07:26:28;23.70;99.90
17687;DHT22;8962;52.538;13.266;2023-07-24T07:28:57;24.10;1.00
17687;DHT22;8962;52.538;13.266;2023-07-24T07:31:24;24.30;1.00
17687;DHT22;8962;52.538;13.266;2023-07-24T07:33:52;24.50;1.00
17687;DHT22;8962;52.538;13.266;2023-07-24T07:36:22;24.50;99.90
17687;DHT22;8962;52.538;13.266;2023-07-24T07:38:52;24.40;99.90
17687;DHT22;8962;52.538;13.266;2023-07-24T07:41:19;24.40;1.00
17687;DHT22;8962;52.538;13.266;2023-07-24T07:43:49;24.50;1.00
17687;DHT22;8962;52.538;13.266;2023-07-24T07:46:17;24.80;1.00
17687;DHT22;8962;52.538;13.266;2023-07-24T07:48:44;24.70;99.90
17687;DHT22;8962;52.538;13.266;2023-07-24T07:51:13;24.80;99.90
17687;DHT22;8962;52.538;13.266;2023-07-24T07:53:41;25.00;99.90
17687;DHT22;8962;52.538;13.266;2023-07-24T07:56:11;25.10;1.00
17687;DHT22;8962;52.538;13.266;2023-07-24T07:58:39;25.20;1.00
17687;DHT22;8962;52.538;13.266;2023-07-24T08:01:09;25.30;99.90
17687;DHT22;8962;52.538;13.266;2023-07-24T08:03:45;25.30;1.00
17687;DHT22;8962;52.538;13.266;2023-07-24T08:06:12;25.70;1.00
17687;DHT22;8962;52.538;13.266;2023-07-24T08:08:40;25.80;99.90
17687;DHT22;8962;52.538;13.266;2023-07-24T08:11:12;25.80;99.90
17687;DHT22;8962;52.538;13.266;2023-07-24T08:13:41;25.60;1.00
17687;DHT22;8962;52.538;13.266;2023-07-24T08:16:14;25.60;99.90
17687;DHT22;8962;52.538;13.266;2023-07-24T08:18:45;25.70;1.00
17687;DHT22;8962;52.538;13.266;2023-07-24T08:21:13;25.90;1.00
17687;DHT22;8962;52.538;13.266;2023-07-24T08:23:41;26.00;99.90
17687;DHT22;8962;52.538;13.266;2023-07-24T08:26:10;26.10;99.90
17687;DHT22;8962;52.538;13.266;2023-07-24T08:28:39;26.30;90.70
17687;DHT22;8962;52.538;13.266;2023-07-24T08:31:08;26.30;1.00
17687;DHT22;8962;52.538;13.266;2023-07-24T08:33:42;26.50;1.00
17687;DHT22;8962;52.538;13.266;2023-07-24T08:36:09;26.70;1.00
17687;DHT22;8962;52.538;13.266;2023-07-24T08:38:38;26.60;1.00
17687;DHT22;8962;52.538;13.266;2023-07-24T08:41:07;26.40;99.90
17687;DHT22;8962;52.538;13.266;2023-07-24T08:43:36;26.30;1.00
17687;DHT22;8962;52.538;13.266;2023-07-24T08:46:04;26.20;1.00
17687;DHT22;8962;52.538;13.266;2023-07-24T08:48:33;26.30;1.00
17687;DHT22;8962;52.538;13.266;2023-07-24T08:51:06;26.70;1.00
17687;DHT22;8962;52.538;13.266;2023-07-24T08:53:42;26.50;99.90
17687;DHT22;8962;52.538;13.266;2023-07-24T08:56:14;26.30;1.00
17687;DHT22;8962;52.538;13.266;2023-07-24T08:58:42;26.50;99.90
17687;DHT22;8962;52.538;13.266;2023-07-24T09:01:09;26.30;1.00
17687;DHT22;8962;52.538;13.266;2023-07-24T09:03:37;26.50;1.00
17687;DHT22;8962;52.538;13.266;2023-07-24T09:06:09;26.30;1.00
17687;DHT22;8962;52.538;13.266;2023-07-24T09:08:38;26.40;1.00
17687;DHT22;8962;52.538;13.266;2023-07-24T09:11:07;26.50;1.00
17687;DHT22;8962;52.538;13.266;2023-07-24T09:13:36;26.70;1.00
17687;DHT22;8962;52.538;13.266;2023-07-24T09:16:05;26.70;1.00
17687;DHT22;8962;52.538;13.266;2023-07-24T09:18:42;26.70;1.00
17687;DHT22;8962;52.538;13.266;2023-07-24T09:21:12;27.00;1.00
17687;DHT22;8962;52.538;13.266;2023-07-24T09:23:43;27.50;99.90
17687;DHT22;8962;52.538;13.266;2023-07-24T09:26:11;27.40;1.00
17687;DHT22;8962;52.538;13.266;2023-07-24T09:28:38;27.20;1.00
17687;DHT22;8962;52.538;13.266;2023-07-24T09:31:05;27.20;1.00
17687;DHT22;8962;52.538;13.266;2023-07-24T09:33:37;27.20;1.00
17687;DHT22;8962;52.538;13.266;2023-07-24T09:36:05;27.20;1.00
17687;DHT22;8962;52.538;13.266;2023-07-24T09:38:38;27.30;1.00
17687;DHT22;8962;52.538;13.266;2023-07-24T09:41:06;27.50;1.00
17687;DHT22;8962;52.538;13.266;2023-07-24T09:43:34;27.70;1.00
17687;DHT22;8962;52.538;13.266;2023-07-24T09:46:04;27.70;1.00
17687;DHT22;8962;52.538;13.266;2023-07-24T09:48:32;27.50;1.00
17687;DHT22;8962;52.538;13.266;2023-07-24T09:51:00;27.10;1.00
17687;DHT22;8962;52.538;13.266;2023-07-24T09:53:32;26.90;1.00
17687;DHT22;8962;52.538;13.266;2023-07-24T09:56:06;26.80;1.00
17687;DHT22;8962;52.538;13.266;2023-07-24T09:58:36;26.80;26.00
17687;DHT22;8962;52.538;13.266;2023-07-24T10:01:05;27.00;1.00
17687;DHT22;8962;52.538;13.266;2023-07-24T10:03:35;27.30;1.00
17687;DHT22;8962;52.538;13.266;2023-07-24T10:06:04;27.50;1.00
17687;DHT22;8962;52.538;13.266;2023-07-24T10:08:32;27.80;1.00
17687;DHT22;8962;52.538;13.266;2023-07-24T10:10:59;27.80;99.90
17687;DHT22;8962;52.538;13.266;2023-07-24T10:13:28;27.80;99.90
17687;DHT22;8962;52.538;13.266;2023-07-24T10:15:56;27.90;99.90
17687;DHT22;8962;52.538;13.266;2023-07-24T10:18:28;27.90;99.90
17687;DHT22;8962;52.538;13.266;2023-07-24T10:21:01;28.10;99.90
17687;DHT22;8962;52.538;13.266;2023-07-24T10:23:29;28.00;1.00
17687;DHT22;8962;52.538;13.266;2023-07-24T10:26:02;28.00;1.00
17687;DHT22;8962;52.538;13.266;2023-07-24T10:28:34;28.10;1.00
17687;DHT22;8962;52.538;13.266;2023-07-24T10:31:07;28.50;1.00
17687;DHT22;8962;52.538;13.266;2023-07-24T10:33:43;28.90;1.00
17687;DHT22;8962;52.538;13.266;2023-07-24T10:36:11;29.20;1.00
17687;DHT22;8962;52.538;13.266;2023-07-24T10:38:41;29.20;1.00
17687;DHT22;8962;52.538;13.266;2023-07-24T10:41:10;29.00;99.90
17687;DHT22;8962;52.538;13.266;2023-07-24T10:43:44;28.80;99.90
17687;DHT22;8962;52.538;13.266;2023-07-24T10:46:12;28.80;99.90
17687;DHT22;8962;52.538;13.266;2023-07-24T10:48:42;28.70;99.90
17687;DHT22;8962;52.538;13.266;2023-07-24T10:51:13;28.80;99.90
17687;DHT22;8962;52.538;13.266;2023-07-24T10:53:43;28.90;99.90
17687;DHT22;8962;52.538;13.266;2023-07-24T10:56:15;28.90;99.90
17687;DHT22;8962;52.538;13.266;2023-07-24T10:58:44;28.80;99.90
17687;DHT22;8962;52.538;13.266;2023-07-24T11:01:11;28.80;99.90
17687;DHT22;8962;52.538;13.266;2023-07-24T11:03:41;29.00;99.90
17687;DHT22;8962;52.538;13.266;2023-07-24T11:06:13;29.00;99.90
17687;DHT22;8962;52.538;13.266;2023-07-24T11:08:50;29.30;99.90
17687;DHT22;8962;52.538;13.266;2023-07-24T11:11:18;29.40;99.90
17687;DHT22;8962;52.538;13.266;2023-07-24T11:13:47;29.20;57.50
17687;DHT22;8962;52.538;13.266;2023-07-24T11:16:14;28.70;69.10
17687;DHT22;8962;52.538;13.266;2023-07-24T11:18:46;28.40;95.40
17687;DHT22;8962;52.538;13.266;2023-07-24T11:21:15;28.30;99.90
17687;DHT22;8962;52.538;13.266;2023-07-24T11:23:48;28.50;99.90
17687;DHT22;8962;52.538;13.266;2023-07-24T11:26:18;28.50;99.90
17687;DHT22;8962;52.538;13.266;2023-07-24T11:28:48;28.10;99.90
17687;DHT22;8962;52.538;13.266;2023-07-24T11:31:15;28.20;99.90
17687;DHT22;8962;52.538;13.266;2023-07-24T11:33:46;28.40;99.90
17687;DHT22;8962;52.538;13.266;2023-07-24T11:36:19;28.60;99.90
17687;DHT22;8962;52.538;13.266;2023-07-24T11:38:48;28.50;99.90
17687;DHT22;8962;52.538;13.266;2023-07-24T11:41:16;28.80;99.90
17687;DHT22;8962;52.538;13.266;2023-07-24T11:43:52;29.10;99.90
17687;DHT22;8962;52.538;13.266;2023-07-24T11:46:24;28.80;99.90
17687;DHT22;8962;52.538;13.266;2023-07-24T11:48:53;28.80;99.90
17687;DHT22;8962;52.538;13.266;2023-07-24T11:51:24;28.80;99.90
17687;DHT22;8962;52.538;13.266;2023-07-24T11:54:03;29.00;99.90
17687;DHT22;8962;52.538;13.266;2023-07-24T11:56:34;28.90;99.90
17687;DHT22;8962;52.538;13.266;2023-07-24T11:59:11;28.50;99.90
17687;DHT22;8962;52.538;13.266;2023-07-24T12:01:41;27.90;99.90
17687;DHT22;8962;52.538;13.266;2023-07-24T12:04:09;27.60;99.90
17687;DHT22;8962;52.538;13.266;2023-07-24T12:06:39;27.20;99.90
17687;DHT22;8962;52.538;13.266;2023-07-24T12:09:09;27.00;99.90
17687;DHT22;8962;52.538;13.266;2023-07-24T12:11:41;26.70;1.00
17687;DHT22;8962;52.538;13.266;2023-07-24T12:14:12;26.00;1.00
17687;DHT22;8962;52.538;13.266;2023-07-24T12:16:40;25.30;1.00
17687;DHT22;8962;52.538;13.266;2023-07-24T12:19:11;24.40;1.00
17687;DHT22;8962;52.538;13.266;2023-07-24T12:21:41;23.60;1.00
17687;DHT22;8962;52.538;13.266;2023-07-24T12:24:10;22.90;1.00
17687;DHT22;8962;52.538;13.266;2023-07-24T12:26:39;22.40;1.00
17687;DHT22;8962;52.538;13.266;2023-07-24T12:29:10;22.20;1.00
17687;DHT22;8962;52.538;13.266;2023-07-24T12:31:43;22.40;1.00
17687;DHT22;8962;52.538;13.266;2023-07-24T12:34:11;23.00;1.00
17687;DHT22;8962;52.538;13.266;2023-07-24T12:36:38;23.80;1.00
17687;DHT22;8962;52.538;13.266;2023-07-24T12:39:05;25.10;1.00
17687;DHT22;8962;52.538;13.266;2023-07-24T12:41:35;26.30;1.00
17687;DHT22;8962;52.538;13.266;2023-07-24T12:44:04;26.90;1.00
17687;DHT22;8962;52.538;13.266;2023-07-24T12:46:35;27.50;1.00
17687;DHT22;8962;52.538;13.266;2023-07-24T12:49:04;27.30;1.00
17687;DHT22;8962;52.538;13.266;2023-07-24T12:51:33;26.60;99.90
17687;DHT22;8962;52.538;13.266;2023-07-24T12:54:08;26.20;99.90
17687;DHT22;8962;52.538;13.266;2023-07-24T12:56:36;25.90;1.00
17687;DHT22;8962;52.538;13.266;2023-07-24T12:59:03;25.70;1.00
17687;DHT22;8962;52.538;13.266;2023-07-24T13:01:35;25.50;1.00
17687;DHT22;8962;52.538;13.266;2023-07-24T13:04:07;25.40;1.00
17687;DHT22;8962;52.538;13.266;2023-07-24T13:06:36;25.30;99.90
17687;DHT22;8962;52.538;13.266;2023-07-24T13:09:04;25.30;99.90
17687;DHT22;8962;52.538;13.266;2023-07-24T13:11:32;25.70;1.00
17687;DHT22;8962;52.538;13.266;2023-07-24T13:13:59;26.30;1.00
17687;DHT22;8962;52.538;13.266;2023-07-24T13:16:27;26.50;99.90
17687;DHT22;8962;52.538;13.266;2023-07-24T13:18:56;26.20;99.90
17687;DHT22;8962;52.538;13.266;2023-07-24T13:21:27;26.00;1.00
17687;DHT22;8962;52.538;13.266;2023-07-24T13:23:55;26.40;1.00
17687;DHT22;8962;52.538;13.266;2023-07-24T13:26:24;26.80;99.90
17687;DHT22;8962;52.538;13.266;2023-07-24T13:28:51;27.00;1.00
17687;DHT22;8962;52.538;13.266;2023-07-24T13:31:21;27.20;99.90
17687;DHT22;8962;52.538;13.266;2023-07-24T13:33:51;28.50;1.00
17687;DHT22;8962;52.538;13.266;2023-07-24T13:36:25;28.70;99.90
17687;DHT22;8962;52.538;13.266;2023-07-24T13:38:52;28.90;99.90
17687;DHT22;8962;52.538;13.266;2023-07-24T13:41:20;29.00;1.00
17687;DHT22;8962;52.538;13.266;2023-07-24T13:43:48;28.70;1.00
17687;DHT22;8962;52.538;13.266;2023-07-24T13:46:15;28.70;1.00
17687;DHT22;8962;52.538;13.266;2023-07-24T13:48:44;28.60;99.90
17687;DHT22;8962;52.538;13.266;2023-07-24T13:51:12;28.00;1.00
17687;DHT22;8962;52.538;13.266;2023-07-24T13:53:41;27.40;1.00
17687;DHT22;8962;52.538;13.266;2023-07-24T13:56:08;27.10;1.00
17687;DHT22;8962;52.538;13.266;2023-07-24T13:58:38;27.00;99.90
17687;DHT22;8962;52.538;13.266;2023-07-24T14:01:05;26.90;99.90
17687;DHT22;8962;52.538;13.266;2023-07-24T14:03:37;27.00;99.90
17687;DHT22;8962;52.538;13.266;2023-07-24T14:06:04;26.90;1.00
17687;DHT22;8962;52.538;13.266;2023-07-24T14:08:35;26.70;99.90
17687;DHT22;8962;52.538;13.266;2023-07-24T14:11:03;26.60;99.90
17687;DHT22;8962;52.538;13.266;2023-07-24T14:13:32;26.30;1.00
17687;DHT22;8962;52.538;13.266;2023-07-24T14:15:59;26.30;1.00
17687;DHT22;8962;52.538;13.266;2023-07-24T14:18:27;26.40;1.00
17687;DHT22;8962;52.538;13.266;2023-07-24T14:20:54;26.50;1.00
17687;DHT22;8962;52.538;13.266;2023-07-24T14:23:22;26.60;1.00
17687;DHT22;8962;52.538;13.266;2023-07-24T14:25:50;26.70;1.00
17687;DHT22;8962;52.538;13.266;2023-07-24T14:28:19;26.70;1.00
17687;DHT22;8962;52.538;13.266;2023-07-24T14:30:47;26.90;9.30
17687;DHT22;8962;52.538;13.266;2023-07-24T14:33:15;26.90;99.90
17687;DHT22;8962;52.538;13.266;2023-07-24T14:35:42;26.80;99.90
17687;DHT22;8962;52.538;13.266;2023-07-24T14:38:10;26.70;99.90
17687;DHT22;8962;52.538;13.266;2023-07-24T14:40:39;26.80;99.90
17687;DHT22;8962;52.538;13.266;2023-07-24T14:43:09;26.80;99.90
17687;DHT22;8962;52.538;13.266;2023-07-24T14:45:38;26.80;18.30
17687;DHT22;8962;52.538;13.266;2023-07-24T14:48:06;26.70;1.00
17687;DHT22;8962;52.538;13.266;2023-07-24T14:50:35;26.50;1.00
17687;DHT22;8962;52.538;13.266;2023-07-24T14:53:04;26.30;1.00
17687;DHT22;8962;52.538;13.266;2023-07-24T14:55:36;26.20;1.00
17687;DHT22;8962;52.538;13.266;2023-07-24T14:58:03;26.10;1.00
17687;DHT22;8962;52.538;13.266;2023-07-24T15:00:32;26.10;1.00
17687;DHT22;8962;52.538;13.266;2023-07-24T15:03:03;26.10;99.90
17687;DHT22;8962;52.538;13.266;2023-07-24T15:05:31;26.20;1.00
17687;DHT22;8962;52.538;13.266;2023-07-24T15:08:04;26.30;99.90
17687;DHT22;8962;52.538;13.266;2023-07-24T15:10:33;26.30;1.00
17687;DHT22;8962;52.538;13.266;2023-07-24T15:13:00;26.40;1.00
17687;DHT22;8962;52.538;13.266;2023-07-24T15:15:29;26.50;1.00
17687;DHT22;8962;52.538;13.266;2023-07-24T15:17:58;26.50;20.60
17687;DHT22;8962;52.538;13.266;2023-07-24T15:20:27;26.60;1.00
17687;DHT22;8962;52.538;13.266;2023-07-24T15:22:55;26.60;1.00
17687;DHT22;8962;52.538;13.266;2023-07-24T15:25:22;26.70;1.00
17687;DHT22;8962;52.538;13.266;2023-07-24T15:27:49;26.80;1.00
17687;DHT22;8962;52.538;13.266;2023-07-24T15:30:16;27.00;1.00
17687;DHT22;8962;52.538;13.266;2023-07-24T15:32:44;27.20;1.00
17687;DHT22;8962;52.538;13.266;2023-07-24T15:35:13;27.20;1.00
17687;DHT22;8962;52.538;13.266;2023-07-24T15:37:42;27.40;99.90
17687;DHT22;8962;52.538;13.266;2023-07-24T15:40:10;27.70;1.00
17687;DHT22;8962;52.538;13.266;2023-07-24T15:42:38;28.40;99.90
17687;DHT22;8962;52.538;13.266;2023-07-24T15:45:08;30.40;99.90
17687;DHT22;8962;52.538;13.266;2023-07-24T15:47:35;32.70;99.90
17687;DHT22;8962;52.538;13.266;2023-07-24T15:50:03;33.00;99.90